createdAt,value
2023-11-04T00:00:01.211Z,5.59
2023-11-04T00:00:46.446Z,5.55
2023-11-04T00:01:58.156Z,5.51
2023-11-04T00:02:32.288Z,5.48
2023-11-04T00:03:06.214Z,5.49
2023-11-04T00:03:41.186Z,5.49
2023-11-04T00:04:15.321Z,5.53
2023-11-04T00:04:50.473Z,5.55
2023-11-04T00:05:40.082Z,5.53
2023-11-04T00:06:15.469Z,5.52
2023-11-04T00:06:50.424Z,5.64
2023-11-04T00:07:27.725Z,5.66
2023-11-04T00:08:01.460Z,5.74
2023-11-04T00:08:35.228Z,5.78
2023-11-04T00:09:28.539Z,5.75
2023-11-04T00:10:09.874Z,5.68
2023-11-04T00:10:44.404Z,5.71
2023-11-04T00:11:19.616Z,5.67
2023-11-04T00:11:53.584Z,5.69
2023-11-04T00:13:05.660Z,5.77
2023-11-04T00:13:39.978Z,5.70
2023-11-04T00:14:15.635Z,5.70
2023-11-04T00:14:49.149Z,5.64
2023-11-04T00:15:25.133Z,5.58
2023-11-04T00:15:59.753Z,5.58
2023-11-04T00:16:49.002Z,5.61
2023-11-04T00:17:22.700Z,5.69
2023-11-04T00:17:56.419Z,5.65
2023-11-04T00:18:32.888Z,5.66
2023-11-04T00:19:07.565Z,5.67
2023-11-04T00:19:41.384Z,5.75
2023-11-04T00:20:36.601Z,5.79
2023-11-04T00:21:17.668Z,5.66
2023-11-04T00:21:51.897Z,5.72
2023-11-04T00:22:25.941Z,5.70
2023-11-04T00:22:59.765Z,5.66
2023-11-04T00:24:12.919Z,5.80
2023-11-04T00:24:49.259Z,5.66
2023-11-04T00:25:23.011Z,5.75
2023-11-04T00:25:57.000Z,5.75
2023-11-04T00:26:30.846Z,5.73
2023-11-04T00:27:06.510Z,5.72
2023-11-04T00:27:49.880Z,5.72
2023-11-04T00:28:23.418Z,5.68
2023-11-04T00:28:56.911Z,5.70
2023-11-04T00:29:31.177Z,5.64
2023-11-04T00:30:05.923Z,5.60
2023-11-04T00:30:39.837Z,5.61
2023-11-04T00:31:31.087Z,5.63
2023-11-04T00:32:05.195Z,5.55
2023-11-04T00:32:39.107Z,5.72
2023-11-04T00:33:13.494Z,5.74
2023-11-04T00:33:47.537Z,5.65
2023-11-04T00:34:21.115Z,5.56
2023-11-04T00:35:12.396Z,5.70
2023-11-04T00:35:46.409Z,5.64
2023-11-04T00:36:20.388Z,5.68
2023-11-04T00:36:54.148Z,5.73
2023-11-04T00:37:28.486Z,5.71
2023-11-04T00:38:02.534Z,5.67
2023-11-04T00:38:53.547Z,5.75
2023-11-04T00:39:27.338Z,5.69
2023-11-04T00:40:07.753Z,5.67
2023-11-04T00:40:43.630Z,5.69
2023-11-04T00:41:21.477Z,5.73
2023-11-04T00:41:55.531Z,5.61
2023-11-04T00:42:39.383Z,5.71
2023-11-04T00:43:13.785Z,5.64
2023-11-04T00:43:48.118Z,5.67
2023-11-04T00:44:22.291Z,5.74
2023-11-04T00:44:56.988Z,5.59
2023-11-04T00:45:30.623Z,5.64
2023-11-04T00:46:18.463Z,5.71
2023-11-04T00:46:52.697Z,5.62
2023-11-04T00:47:26.469Z,5.64
2023-11-04T00:48:01.189Z,5.64
2023-11-04T00:48:36.816Z,5.72
2023-11-04T00:49:11.831Z,5.71
2023-11-04T00:50:01.884Z,5.71
2023-11-04T00:50:38.806Z,5.67
2023-11-04T00:51:13.225Z,5.67
2023-11-04T00:51:47.840Z,5.67
2023-11-04T00:52:25.083Z,5.60
2023-11-04T00:53:34.401Z,5.68
2023-11-04T00:54:09.069Z,5.60
2023-11-04T00:54:43.189Z,5.57
2023-11-04T00:55:18.881Z,5.66
2023-11-04T00:55:53.193Z,5.68
2023-11-04T00:56:26.965Z,5.71
2023-11-04T00:57:16.455Z,5.76
2023-11-04T00:57:50.648Z,5.72
2023-11-04T00:58:24.527Z,5.63
2023-11-04T00:58:58.630Z,5.58
2023-11-04T00:59:32.419Z,5.69
2023-11-04T01:00:10.729Z,5.60
2023-11-04T01:00:57.916Z,5.63
2023-11-04T01:01:31.552Z,5.50
2023-11-04T01:02:05.420Z,5.48
2023-11-04T01:02:38.973Z,5.56
2023-11-04T01:03:12.834Z,5.58
2023-11-04T01:03:46.976Z,5.58
2023-11-04T01:04:38.620Z,5.53
2023-11-04T01:05:12.707Z,5.72
2023-11-04T01:05:49.065Z,5.62
2023-11-04T01:06:23.180Z,5.53
2023-11-04T01:06:57.492Z,5.52
2023-11-04T01:07:32.075Z,5.58
2023-11-04T01:08:19.815Z,5.63
2023-11-04T01:08:53.569Z,5.53
2023-11-04T01:09:27.449Z,5.55
2023-11-04T01:10:01.406Z,5.53
2023-11-04T01:10:35.767Z,5.59
2023-11-04T01:11:09.878Z,5.61
2023-11-04T01:12:00.899Z,5.55
2023-11-04T01:12:34.788Z,5.49
2023-11-04T01:13:09.359Z,5.43
2023-11-04T01:13:43.593Z,5.41
2023-11-04T01:14:20.646Z,5.46
2023-11-04T01:14:54.986Z,5.44
2023-11-04T01:15:42.153Z,5.44
2023-11-04T01:16:16.589Z,5.50
2023-11-04T01:16:52.946Z,5.52
2023-11-04T01:17:26.819Z,5.43
2023-11-04T01:18:02.272Z,5.36
2023-11-04T01:18:35.979Z,5.50
2023-11-04T01:19:24.108Z,5.43
2023-11-04T01:19:57.902Z,5.43
2023-11-04T01:20:31.721Z,5.47
2023-11-04T01:21:07.607Z,5.46
2023-11-04T01:21:41.528Z,5.41
2023-11-04T01:22:16.882Z,5.44
2023-11-04T01:23:05.448Z,5.50
2023-11-04T01:23:39.358Z,5.45
2023-11-04T01:24:13.054Z,5.46
2023-11-04T01:24:47.532Z,5.43
2023-11-04T01:25:21.324Z,5.40
2023-11-04T01:25:55.434Z,5.39
2023-11-04T01:26:46.556Z,5.47
2023-11-04T01:27:20.758Z,5.43
2023-11-04T01:27:55.219Z,5.58
2023-11-04T01:28:29.171Z,5.60
2023-11-04T01:29:02.944Z,5.51
2023-11-04T01:29:37.213Z,5.55
2023-11-04T01:30:28.085Z,5.61
2023-11-04T01:31:03.126Z,5.68
2023-11-04T01:31:36.836Z,5.71
2023-11-04T01:32:12.632Z,5.68
2023-11-04T01:32:47.271Z,5.63
2023-11-04T01:33:21.382Z,5.64
2023-11-04T01:34:12.483Z,5.60
2023-11-04T01:34:46.869Z,5.58
2023-11-04T01:35:20.843Z,5.63
2023-11-04T01:35:54.800Z,5.66
2023-11-04T01:36:28.835Z,5.63
2023-11-04T01:37:03.270Z,5.67
2023-11-04T01:37:49.985Z,5.61
2023-11-04T01:38:23.704Z,5.57
2023-11-04T01:39:00.329Z,5.47
2023-11-04T01:39:35.231Z,5.53
2023-11-04T01:40:12.939Z,5.56
2023-11-04T01:40:53.427Z,5.56
2023-11-04T01:41:36.510Z,5.56
2023-11-04T01:42:10.473Z,5.54
2023-11-04T01:42:48.239Z,5.54
2023-11-04T01:43:40.883Z,5.47
2023-11-04T01:44:15.044Z,5.48
2023-11-04T01:44:48.922Z,5.56
2023-11-04T01:45:35.922Z,5.55
2023-11-04T01:46:10.766Z,5.60
2023-11-04T01:46:45.255Z,5.58
2023-11-04T01:47:19.257Z,5.67
2023-11-04T01:47:54.288Z,5.51
2023-11-04T01:48:29.550Z,5.54
2023-11-04T01:49:18.625Z,5.58
2023-11-04T01:49:52.757Z,5.36
2023-11-04T01:50:26.800Z,5.37
2023-11-04T01:51:00.636Z,5.48
2023-11-04T01:51:34.373Z,5.47
2023-11-04T01:52:08.618Z,5.60
2023-11-04T01:52:55.837Z,5.62
2023-11-04T01:53:30.253Z,5.56
2023-11-04T01:54:05.413Z,5.49
2023-11-04T01:54:39.826Z,5.46
2023-11-04T01:55:15.235Z,5.38
2023-11-04T01:55:49.296Z,5.45
2023-11-04T01:56:40.845Z,5.42
2023-11-04T01:57:15.068Z,5.39
2023-11-04T01:57:50.389Z,5.41
2023-11-04T01:58:24.422Z,5.42
2023-11-04T01:58:59.611Z,5.49
2023-11-04T01:59:34.455Z,5.60
2023-11-04T02:00:21.992Z,5.55
2023-11-04T02:00:57.255Z,5.39
2023-11-04T02:01:32.563Z,5.46
2023-11-04T02:02:08.925Z,5.49
2023-11-04T02:02:45.321Z,5.43
2023-11-04T02:03:19.799Z,5.42
2023-11-04T02:04:04.733Z,5.57
2023-11-04T02:04:39.109Z,5.54
2023-11-04T02:05:13.953Z,5.53
2023-11-04T02:05:48.000Z,5.55
2023-11-04T02:06:22.453Z,5.50
2023-11-04T02:06:56.627Z,5.50
2023-11-04T02:07:41.821Z,5.44
2023-11-04T02:08:16.424Z,5.41
2023-11-04T02:08:50.554Z,5.45
2023-11-04T02:09:26.689Z,5.51
2023-11-04T02:10:01.168Z,5.44
2023-11-04T02:10:35.903Z,5.40
2023-11-04T02:11:23.917Z,5.46
2023-11-04T02:11:57.933Z,5.35
2023-11-04T02:12:32.748Z,5.41
2023-11-04T02:13:07.292Z,5.43
2023-11-04T02:13:42.263Z,5.41
2023-11-04T02:14:15.836Z,5.35
2023-11-04T02:15:05.832Z,5.39
2023-11-04T02:15:39.943Z,5.38
2023-11-04T02:16:14.115Z,5.39
2023-11-04T02:16:49.662Z,5.33
2023-11-04T02:17:24.976Z,5.43
2023-11-04T02:17:58.932Z,5.40
2023-11-04T02:18:51.484Z,5.47
2023-11-04T02:19:26.054Z,5.33
2023-11-04T02:20:06.224Z,5.38
2023-11-04T02:20:43.752Z,5.25
2023-11-04T02:21:18.353Z,5.23
2023-11-04T02:22:47.256Z,5.23
2023-11-04T02:23:21.095Z,5.27
2023-11-04T02:23:54.947Z,5.34
2023-11-04T02:24:28.952Z,5.28
2023-11-04T02:25:03.158Z,5.20
2023-11-04T02:26:07.002Z,5.34
2023-11-04T02:26:42.289Z,5.27
2023-11-04T02:27:16.487Z,5.21
2023-11-04T02:27:51.013Z,5.19
2023-11-04T02:28:25.436Z,5.18
2023-11-04T02:29:00.738Z,5.25
2023-11-04T02:29:50.305Z,5.14
2023-11-04T02:30:24.707Z,5.12
2023-11-04T02:30:59.913Z,5.07
2023-11-04T02:31:35.433Z,5.07
2023-11-04T02:32:09.266Z,5.10
2023-11-04T02:33:22.800Z,5.09
2023-11-04T02:33:58.498Z,4.96
2023-11-04T02:34:34.620Z,5.04
2023-11-04T02:35:08.619Z,5.09
2023-11-04T02:35:42.404Z,5.03
2023-11-04T02:36:16.116Z,4.96
2023-11-04T02:37:08.664Z,5.08
2023-11-04T02:37:44.862Z,5.00
2023-11-04T02:38:19.946Z,5.11
2023-11-04T02:38:57.310Z,5.11
2023-11-04T02:39:31.288Z,5.18
2023-11-04T02:40:06.941Z,5.24
2023-11-04T02:40:50.158Z,5.19
2023-11-04T02:41:24.769Z,5.13
2023-11-04T02:41:58.569Z,5.19
2023-11-04T02:42:32.268Z,5.23
2023-11-04T02:43:05.929Z,5.19
2023-11-04T02:43:40.130Z,5.14
2023-11-04T02:44:28.527Z,5.13
2023-11-04T02:45:02.233Z,5.01
2023-11-04T02:45:36.607Z,5.28
2023-11-04T02:46:11.223Z,5.25
2023-11-04T02:46:45.266Z,5.19
2023-11-04T02:47:19.061Z,5.28
2023-11-04T02:48:09.476Z,5.22
2023-11-04T02:48:43.936Z,5.07
2023-11-04T02:49:17.786Z,4.98
2023-11-04T02:49:52.612Z,5.06
2023-11-04T02:50:27.267Z,5.03
2023-11-04T02:51:05.265Z,5.01
2023-11-04T02:52:03.621Z,5.10
2023-11-04T02:52:43.516Z,4.95
2023-11-04T02:53:17.580Z,5.05
2023-11-04T02:53:52.495Z,5.17
2023-11-04T02:54:26.809Z,5.11
2023-11-04T02:55:29.236Z,5.27
2023-11-04T02:56:04.074Z,5.15
2023-11-04T02:56:38.299Z,5.16
2023-11-04T02:57:13.529Z,5.09
2023-11-04T02:57:49.119Z,5.03
2023-11-04T02:58:22.776Z,5.20
2023-11-04T02:59:08.831Z,5.20
2023-11-04T02:59:42.987Z,5.20
2023-11-04T03:03:32.105Z,5.19
2023-11-04T03:04:09.846Z,5.23
2023-11-04T03:04:44.344Z,5.23
2023-11-04T03:05:27.555Z,5.31
2023-11-04T03:06:07.251Z,5.24
2023-11-04T03:07:18.940Z,5.32
2023-11-04T03:07:53.305Z,5.23
2023-11-04T03:08:30.863Z,5.10
2023-11-04T03:09:05.205Z,5.02
2023-11-04T03:09:40.256Z,5.08
2023-11-04T03:10:14.313Z,5.14
2023-11-04T03:10:56.296Z,5.05
2023-11-04T03:11:30.614Z,5.00
2023-11-04T03:12:05.158Z,5.09
2023-11-04T03:12:39.303Z,5.23
2023-11-04T03:13:18.358Z,5.19
2023-11-04T03:13:52.998Z,5.13
2023-11-04T03:14:44.330Z,5.25
2023-11-04T03:15:18.289Z,5.13
2023-11-04T03:15:52.433Z,5.21
2023-11-04T03:16:25.971Z,5.18
2023-11-04T03:17:02.807Z,5.26
2023-11-04T03:18:16.254Z,5.35
2023-11-04T03:18:50.481Z,5.26
2023-11-04T03:19:25.113Z,5.32
2023-11-04T03:19:59.295Z,5.28
2023-11-04T03:20:38.345Z,5.35
2023-11-04T03:21:15.426Z,5.31
2023-11-04T03:22:00.148Z,5.28
2023-11-04T03:22:34.414Z,5.21
2023-11-04T03:23:08.542Z,5.20
2023-11-04T03:23:43.421Z,5.34
2023-11-04T03:24:18.051Z,5.40
2023-11-04T03:24:52.266Z,5.30
2023-11-04T03:25:39.353Z,5.27
2023-11-04T03:26:14.648Z,5.08
2023-11-04T03:26:50.152Z,5.18
2023-11-04T03:27:25.365Z,5.23
2023-11-04T03:27:59.834Z,5.21
2023-11-04T03:28:34.993Z,5.23
2023-11-04T03:29:21.932Z,5.31
2023-11-04T03:29:56.468Z,5.23
2023-11-04T03:30:32.314Z,5.18
2023-11-04T03:31:06.464Z,5.19
2023-11-04T03:31:40.200Z,5.18
2023-11-04T03:32:14.064Z,5.10
2023-11-04T03:33:00.189Z,5.17
2023-11-04T03:33:36.512Z,5.07
2023-11-04T03:34:10.919Z,5.14
2023-11-04T03:34:47.396Z,5.11
2023-11-04T03:35:23.625Z,5.22
2023-11-04T03:35:57.613Z,5.18
2023-11-04T03:36:46.914Z,5.26
2023-11-04T03:37:21.231Z,5.18
2023-11-04T03:37:55.392Z,5.20
2023-11-04T03:38:29.674Z,5.13
2023-11-04T03:39:03.398Z,5.09
2023-11-04T03:39:38.053Z,5.15
2023-11-04T03:40:25.005Z,5.18
2023-11-04T03:41:01.759Z,5.15
2023-11-04T03:41:37.691Z,5.22
2023-11-04T03:42:12.376Z,5.13
2023-11-04T03:42:46.760Z,5.05
2023-11-04T03:43:27.596Z,5.22
2023-11-04T03:44:19.471Z,5.25
2023-11-04T03:44:53.303Z,5.19
2023-11-04T03:45:28.823Z,5.18
2023-11-04T03:46:04.534Z,5.12
2023-11-04T03:46:39.107Z,5.14
2023-11-04T03:47:12.949Z,5.21
2023-11-04T03:47:56.819Z,5.19
2023-11-04T03:48:31.073Z,5.11
2023-11-04T03:49:06.649Z,5.21
2023-11-04T03:49:40.762Z,5.12
2023-11-04T03:50:15.388Z,5.10
2023-11-04T03:50:48.884Z,5.16
2023-11-04T03:51:35.861Z,5.23
2023-11-04T03:52:11.807Z,5.02
2023-11-04T03:52:45.715Z,5.05
2023-11-04T03:53:19.252Z,5.00
2023-11-04T03:53:56.104Z,5.02
2023-11-04T03:54:32.981Z,4.97
2023-11-04T03:55:20.616Z,5.10
2023-11-04T03:55:55.150Z,5.01
2023-11-04T03:56:29.533Z,5.02
2023-11-04T03:57:11.821Z,5.05
2023-11-04T03:57:45.976Z,4.98
2023-11-04T03:58:24.094Z,4.95
2023-11-04T03:59:12.649Z,4.93
2023-11-04T03:59:46.317Z,4.76
2023-11-04T04:00:21.096Z,4.91
2023-11-04T04:00:55.046Z,5.00
2023-11-04T04:01:29.477Z,4.93
2023-11-04T04:02:04.898Z,4.98
2023-11-04T04:02:47.137Z,5.04
2023-11-04T04:03:21.037Z,4.99
2023-11-04T04:03:55.349Z,4.95
2023-11-04T04:04:31.854Z,4.87
2023-11-04T04:05:07.025Z,4.87
2023-11-04T04:05:41.789Z,4.90
2023-11-04T04:06:32.043Z,4.89
2023-11-04T04:07:06.738Z,4.83
2023-11-04T04:07:41.257Z,4.92
2023-11-04T04:08:19.846Z,4.87
2023-11-04T04:08:54.102Z,4.90
2023-11-04T04:10:08.639Z,4.98
2023-11-04T04:10:42.960Z,4.91
2023-11-04T04:11:22.064Z,4.93
2023-11-04T04:11:58.892Z,4.93
2023-11-04T04:12:32.908Z,4.92
2023-11-04T04:13:42.464Z,4.91
2023-11-04T04:14:16.419Z,4.86
2023-11-04T04:14:50.233Z,4.90
2023-11-04T04:15:24.121Z,4.93
2023-11-04T04:15:59.231Z,4.83
2023-11-04T04:16:33.369Z,4.90
2023-11-04T04:17:23.513Z,4.88
2023-11-04T04:17:57.733Z,4.87
2023-11-04T04:18:31.521Z,4.78
2023-11-04T04:19:06.635Z,4.85
2023-11-04T04:19:43.566Z,4.79
2023-11-04T04:20:23.761Z,4.78
2023-11-04T04:21:08.133Z,4.76
2023-11-04T04:21:45.118Z,4.70
2023-11-04T04:22:21.172Z,4.66
2023-11-04T04:22:55.474Z,4.66
2023-11-04T04:23:29.598Z,4.66
2023-11-04T04:24:03.117Z,4.75
2023-11-04T04:24:44.896Z,4.78
2023-11-04T04:25:19.595Z,4.69
2023-11-04T04:25:59.065Z,4.71
2023-11-04T04:26:34.197Z,4.66
2023-11-04T04:27:08.241Z,4.73
2023-11-04T04:27:42.746Z,4.73
2023-11-04T04:28:29.710Z,4.81
2023-11-04T04:29:04.829Z,4.72
2023-11-04T04:29:39.379Z,4.68
2023-11-04T04:30:13.660Z,4.69
2023-11-04T04:30:47.501Z,4.62
2023-11-04T04:31:21.485Z,4.63
2023-11-04T04:32:08.569Z,4.54
2023-11-04T04:32:43.424Z,4.42
2023-11-04T04:33:18.855Z,4.45
2023-11-04T04:33:52.880Z,4.47
2023-11-04T04:34:26.749Z,4.52
2023-11-04T04:35:01.772Z,4.46
2023-11-04T04:35:49.528Z,4.46
2023-11-04T04:36:25.507Z,4.39
2023-11-04T04:37:00.283Z,4.35
2023-11-04T04:37:42.946Z,4.38
2023-11-04T04:38:16.707Z,4.38
2023-11-04T04:38:52.335Z,4.41
2023-11-04T04:39:41.546Z,4.46
2023-11-04T04:40:15.666Z,4.37
2023-11-04T04:40:49.681Z,4.40
2023-11-04T04:41:25.504Z,4.39
2023-11-04T04:42:01.660Z,4.45
2023-11-04T04:42:38.428Z,4.49
2023-11-04T04:43:21.697Z,4.51
2023-11-04T04:43:57.984Z,4.50
2023-11-04T04:44:34.894Z,4.59
2023-11-04T04:45:09.725Z,4.49
2023-11-04T04:45:46.609Z,4.53
2023-11-04T04:46:20.417Z,4.46
2023-11-04T04:47:03.777Z,4.60
2023-11-04T04:47:41.596Z,4.52
2023-11-04T04:48:17.795Z,4.57
2023-11-04T04:48:54.406Z,4.52
2023-11-04T04:49:32.216Z,4.48
2023-11-04T04:50:06.673Z,4.45
2023-11-04T05:01:22.794Z,4.67
2023-11-04T05:01:58.797Z,4.52
2023-11-04T05:02:38.410Z,4.48
2023-11-04T05:03:15.845Z,4.41
2023-11-04T05:04:03.386Z,4.44
2023-11-04T05:04:37.352Z,4.36
2023-11-04T05:05:14.410Z,4.31
2023-11-04T05:05:48.418Z,4.30
2023-11-04T05:06:23.461Z,4.27
2023-11-04T05:06:59.598Z,4.21
2023-11-04T05:07:48.894Z,4.33
2023-11-04T05:08:36.419Z,4.32
2023-11-04T05:09:12.651Z,4.28
2023-11-04T05:09:46.501Z,4.30
2023-11-04T05:10:20.543Z,4.26
2023-11-04T05:11:34.406Z,4.31
2023-11-04T05:12:08.432Z,4.19
2023-11-04T05:12:42.719Z,4.18
2023-11-04T05:13:16.649Z,4.18
2023-11-04T05:13:51.468Z,4.12
2023-11-04T05:14:25.455Z,4.22
2023-11-04T05:15:11.401Z,4.26
2023-11-04T05:15:47.692Z,4.19
2023-11-04T05:16:23.185Z,4.17
2023-11-04T05:16:56.894Z,4.19
2023-11-04T05:17:31.673Z,4.06
2023-11-04T05:18:06.006Z,4.02
2023-11-04T05:18:55.257Z,4.16
2023-11-04T05:19:30.644Z,4.18
2023-11-04T05:20:08.515Z,4.22
2023-11-04T05:20:43.259Z,4.25
2023-11-04T05:21:19.960Z,4.12
2023-11-04T05:21:54.184Z,4.14
2023-11-04T05:22:36.931Z,4.12
2023-11-04T05:23:12.369Z,3.98
2023-11-04T05:23:47.510Z,4.09
2023-11-04T05:24:22.235Z,4.10
2023-11-04T05:24:56.727Z,4.06
2023-11-04T05:25:38.281Z,4.02
2023-11-04T05:26:23.551Z,4.09
2023-11-04T05:26:58.090Z,3.99
2023-11-04T05:27:35.429Z,3.92
2023-11-04T05:28:09.728Z,3.98
2023-11-04T05:28:43.678Z,4.01
2023-11-04T05:29:17.781Z,3.90
2023-11-04T05:30:03.088Z,3.99
2023-11-04T05:30:37.640Z,3.94
2023-11-04T05:31:12.678Z,3.90
2023-11-04T05:31:48.167Z,3.92
2023-11-04T05:32:24.962Z,3.89
2023-11-04T05:33:00.803Z,3.89
2023-11-04T05:33:50.788Z,3.85
2023-11-04T05:34:24.503Z,3.82
2023-11-04T05:34:58.447Z,3.83
2023-11-04T05:35:33.174Z,3.85
2023-11-04T05:36:12.713Z,3.74
2023-11-04T05:36:53.246Z,3.76
2023-11-04T05:37:36.931Z,3.85
2023-11-04T05:38:11.441Z,3.86
2023-11-04T05:38:47.323Z,3.92
2023-11-04T05:39:21.115Z,3.88
2023-11-04T05:39:55.109Z,3.95
2023-11-04T05:40:30.281Z,3.95
2023-11-04T05:41:16.119Z,3.96
2023-11-04T05:41:50.277Z,3.88
2023-11-04T05:42:26.668Z,3.93
2023-11-04T05:43:01.022Z,3.85
2023-11-04T05:43:37.105Z,3.92
2023-11-04T05:44:11.075Z,3.89
2023-11-04T05:44:59.775Z,3.95
2023-11-04T05:45:48.458Z,3.81
2023-11-04T05:46:22.258Z,3.88
2023-11-04T05:46:58.822Z,3.87
2023-11-04T05:47:35.931Z,3.91
2023-11-04T05:48:45.258Z,3.90
2023-11-04T05:49:19.347Z,3.76
2023-11-04T05:49:54.336Z,3.83
2023-11-04T05:50:29.100Z,3.76
2023-11-04T05:51:02.948Z,3.71
2023-11-04T05:51:37.997Z,3.65
2023-11-04T05:52:27.942Z,3.78
2023-11-04T05:53:01.708Z,3.70
2023-11-04T05:53:35.789Z,3.64
2023-11-04T05:54:14.755Z,3.60
2023-11-04T05:54:49.392Z,3.53
2023-11-04T05:55:24.702Z,3.51
2023-11-04T05:56:08.910Z,3.46
2023-11-04T05:56:43.156Z,3.40
2023-11-04T05:57:17.210Z,3.39
2023-11-04T05:57:51.555Z,3.43
2023-11-04T05:58:25.480Z,3.45
2023-11-04T05:58:59.969Z,3.45
2023-11-04T05:59:54.505Z,3.56
2023-11-04T06:00:32.170Z,3.43
2023-11-04T06:01:08.245Z,3.44
2023-11-04T06:01:43.344Z,3.42
2023-11-04T06:02:17.370Z,3.45
2023-11-04T06:03:31.272Z,3.49
2023-11-04T06:04:11.008Z,3.37
2023-11-04T06:04:46.525Z,3.28
2023-11-04T06:05:20.619Z,3.33
2023-11-04T06:05:54.623Z,3.29
2023-11-04T06:07:06.167Z,3.38
2023-11-04T06:07:40.841Z,3.25
2023-11-04T06:08:17.759Z,3.22
2023-11-04T06:08:52.432Z,3.22
2023-11-04T06:09:29.757Z,3.22
2023-11-04T06:10:12.333Z,3.21
2023-11-04T06:11:00.877Z,3.16
2023-11-04T06:11:40.385Z,3.05
2023-11-04T06:12:16.505Z,3.04
2023-11-04T06:12:50.359Z,3.07
2023-11-04T06:13:27.419Z,3.05
2023-11-04T06:14:36.399Z,3.03
2023-11-04T06:15:13.060Z,2.88
2023-11-04T06:15:46.729Z,2.89
2023-11-04T06:16:20.409Z,2.90
2023-11-04T06:16:54.100Z,2.83
2023-11-04T06:17:29.172Z,2.80
2023-11-04T06:18:14.325Z,2.84
2023-11-04T06:18:48.379Z,2.75
2023-11-04T06:19:22.729Z,2.77
2023-11-04T06:19:58.746Z,2.79
2023-11-04T06:20:32.748Z,2.85
2023-11-04T06:21:09.512Z,2.95
2023-11-04T06:22:00.164Z,2.94
2023-11-04T06:22:34.491Z,2.83
2023-11-04T06:23:10.938Z,2.82
2023-11-04T06:23:45.531Z,2.77
2023-11-04T06:24:22.143Z,2.67
2023-11-04T06:25:46.113Z,2.64
2023-11-04T06:26:24.223Z,2.54
2023-11-04T06:26:59.756Z,2.49
2023-11-04T06:27:33.749Z,2.46
2023-11-04T06:28:11.224Z,2.55
2023-11-04T06:29:11.968Z,2.62
2023-11-04T06:29:45.458Z,2.54
2023-11-04T06:30:19.020Z,2.54
2023-11-04T06:30:54.538Z,2.52
2023-11-04T06:31:31.526Z,2.54
2023-11-04T06:32:11.726Z,2.55
2023-11-04T06:33:04.967Z,2.61
2023-11-04T06:33:40.268Z,2.50
2023-11-04T06:34:14.231Z,2.54
2023-11-04T06:34:48.180Z,2.57
2023-11-04T06:35:25.060Z,2.62
2023-11-04T06:36:35.552Z,2.85
2023-11-04T06:37:12.202Z,2.84
2023-11-04T06:37:45.987Z,2.88
2023-11-04T06:38:20.923Z,2.98
2023-11-04T06:38:54.996Z,3.01
2023-11-04T06:39:34.444Z,3.05
2023-11-04T06:40:18.291Z,3.08
2023-11-04T06:40:57.665Z,2.97
2023-11-04T06:41:45.207Z,2.91
2023-11-04T06:42:28.381Z,2.87
2023-11-04T06:43:04.449Z,2.84
2023-11-04T06:43:40.472Z,2.87
2023-11-04T06:44:26.153Z,2.87
2023-11-04T06:45:02.515Z,2.79
2023-11-04T06:45:36.769Z,2.78
2023-11-04T06:46:10.909Z,2.79
2023-11-04T06:46:50.522Z,2.82
2023-11-04T06:47:26.048Z,2.87
2023-11-04T06:48:13.353Z,2.93
2023-11-04T06:48:50.003Z,2.91
2023-11-04T06:49:24.899Z,2.89
2023-11-04T06:50:01.660Z,2.93
2023-11-04T06:50:37.749Z,2.91
2023-11-04T06:51:46.322Z,3.08
2023-11-04T06:52:27.825Z,2.95
2023-11-04T06:53:03.186Z,3.01
2023-11-04T06:53:40.617Z,3.06
2023-11-04T06:54:14.681Z,3.01
2023-11-04T06:55:25.811Z,3.23
2023-11-04T06:56:02.011Z,3.10
2023-11-04T06:56:39.656Z,3.14
2023-11-04T06:57:16.948Z,3.13
2023-11-04T06:57:54.390Z,3.11
2023-11-04T06:59:04.038Z,3.24
2023-11-04T06:59:42.077Z,3.14
2023-11-04T07:00:16.961Z,3.16
2023-11-04T07:00:52.090Z,3.16
2023-11-04T07:01:28.016Z,3.24
2023-11-04T07:02:57.608Z,3.41
2023-11-04T07:03:35.105Z,3.27
2023-11-04T07:04:12.173Z,3.24
2023-11-04T07:04:48.248Z,3.24
2023-11-04T07:05:24.474Z,3.24
2023-11-04T07:06:17.103Z,3.26
2023-11-04T07:06:52.599Z,3.09
2023-11-04T07:07:26.943Z,3.21
2023-11-04T07:08:06.565Z,3.21
2023-11-04T07:08:44.354Z,3.18
2023-11-04T07:09:19.643Z,3.21
2023-11-04T07:10:02.157Z,3.32
2023-11-04T07:10:38.978Z,3.24
2023-11-04T07:11:16.428Z,3.18
2023-11-04T07:11:50.540Z,3.21
2023-11-04T07:12:25.138Z,3.17
2023-11-04T07:12:59.206Z,3.21
2023-11-04T07:13:45.051Z,3.25
2023-11-04T07:14:21.258Z,3.19
2023-11-04T07:14:57.744Z,3.20
2023-11-04T07:15:36.522Z,3.24
2023-11-04T07:16:11.452Z,3.25
2023-11-04T07:16:49.947Z,3.33
2023-11-04T07:17:34.532Z,3.41
2023-11-04T07:18:09.811Z,3.31
2023-11-04T07:18:47.741Z,3.34
2023-11-04T07:19:28.124Z,3.42
2023-11-04T07:20:02.186Z,3.42
2023-11-04T07:21:15.469Z,3.54
2023-11-04T07:21:53.592Z,3.42
2023-11-04T07:22:27.768Z,3.33
2023-11-04T07:23:05.110Z,3.38
2023-11-04T07:23:40.135Z,3.33
2023-11-04T07:24:48.985Z,3.44
2023-11-04T07:25:23.990Z,3.46
2023-11-04T07:25:58.464Z,3.54
2023-11-04T07:26:36.775Z,3.63
2023-11-04T07:27:14.509Z,3.60
2023-11-04T07:27:54.261Z,3.69
2023-11-04T07:28:42.599Z,3.72
2023-11-04T07:29:20.057Z,3.66
2023-11-04T07:29:54.243Z,3.70
2023-11-04T07:30:28.042Z,3.65
2023-11-04T07:31:01.919Z,3.69
2023-11-04T07:31:36.891Z,3.70
2023-11-04T07:32:18.673Z,3.72
2023-11-04T07:33:04.802Z,3.65
2023-11-04T07:33:42.120Z,3.71
2023-11-04T07:34:18.832Z,3.75
2023-11-04T07:34:53.910Z,3.79
2023-11-04T07:36:05.308Z,3.86
2023-11-04T07:36:39.571Z,3.81
2023-11-04T07:37:15.687Z,3.85
2023-11-04T07:37:52.107Z,3.86
2023-11-04T07:38:26.988Z,3.87
2023-11-04T07:39:03.951Z,3.84
2023-11-04T07:39:46.033Z,3.91
2023-11-04T07:40:19.957Z,3.86
2023-11-04T07:40:53.901Z,3.91
2023-11-04T07:41:31.061Z,3.95
2023-11-04T07:42:04.862Z,3.95
2023-11-04T07:42:39.085Z,3.95
2023-11-04T07:43:28.566Z,4.05
2023-11-04T07:44:02.802Z,3.98
2023-11-04T07:44:39.929Z,4.01
2023-11-04T07:45:14.407Z,4.16
2023-11-04T07:45:48.360Z,4.20
2023-11-04T07:46:26.369Z,4.13
2023-11-04T07:47:08.136Z,4.22
2023-11-04T07:47:42.590Z,4.22
2023-11-04T07:48:16.621Z,4.29
2023-11-04T07:48:55.339Z,4.33
2023-11-04T07:49:29.716Z,4.39
2023-11-04T07:50:04.271Z,4.40
2023-11-04T07:50:51.506Z,4.40
2023-11-04T07:51:25.275Z,4.35
2023-11-04T07:52:01.225Z,4.26
2023-11-04T07:52:42.868Z,4.27
2023-11-04T07:53:23.914Z,4.26
2023-11-04T07:53:58.313Z,4.47
2023-11-04T07:54:43.880Z,4.62
2023-11-04T07:55:18.352Z,4.60
2023-11-04T07:55:52.651Z,4.58
2023-11-04T07:56:29.041Z,4.66
2023-11-04T07:57:03.911Z,4.80
2023-11-04T07:57:40.452Z,4.92
2023-11-04T07:58:26.299Z,4.92
2023-11-04T07:59:03.229Z,4.95
2023-11-04T07:59:38.354Z,5.00
2023-11-04T08:00:15.524Z,4.98
2023-11-04T08:00:50.775Z,5.09
2023-11-04T08:02:01.960Z,5.24
2023-11-04T08:02:36.860Z,5.17
2023-11-04T08:03:11.019Z,5.13
2023-11-04T08:03:45.018Z,5.20
2023-11-04T08:04:18.744Z,5.24
2023-11-04T08:04:55.170Z,5.26
2023-11-04T08:05:44.254Z,5.21
2023-11-04T08:06:18.794Z,5.15
2023-11-04T08:06:52.767Z,5.24
2023-11-04T08:07:28.269Z,5.24
2023-11-04T08:08:02.257Z,5.25
2023-11-04T08:08:36.079Z,5.39
2023-11-04T08:09:26.565Z,5.50
2023-11-04T08:10:01.276Z,5.44
2023-11-04T08:10:37.074Z,5.45
2023-11-04T08:11:11.150Z,5.49
2023-11-04T08:11:45.196Z,5.46
2023-11-04T08:12:20.923Z,5.44
2023-11-04T08:13:07.809Z,5.53
2023-11-04T08:13:41.837Z,5.49
2023-11-04T08:14:15.716Z,5.59
2023-11-04T08:14:49.670Z,5.62
2023-11-04T08:15:23.697Z,5.70
2023-11-04T08:15:58.202Z,5.85
2023-11-04T08:16:45.562Z,5.92
2023-11-04T08:17:19.447Z,5.94
2023-11-04T08:17:53.372Z,6.01
2023-11-04T08:18:33.064Z,6.02
2023-11-04T08:19:12.528Z,5.98
2023-11-04T08:19:46.414Z,6.02
2023-11-04T08:20:30.611Z,6.01
2023-11-04T08:21:06.207Z,5.92
2023-11-04T08:21:43.511Z,5.98
2023-11-04T08:22:19.434Z,6.08
2023-11-04T08:22:55.716Z,6.07
2023-11-04T08:24:10.118Z,6.22
2023-11-04T08:24:46.298Z,6.11
2023-11-04T08:25:20.262Z,5.97
2023-11-04T08:25:55.222Z,5.94
2023-11-04T08:26:29.145Z,5.85
2023-11-04T08:27:03.933Z,5.91
2023-11-04T08:27:47.474Z,5.93
2023-11-04T08:28:21.168Z,5.98
2023-11-04T08:28:55.023Z,6.03
2023-11-04T08:29:28.826Z,6.01
2023-11-04T08:30:05.642Z,5.95
2023-11-04T08:30:40.034Z,6.02
2023-11-04T08:31:29.048Z,6.18
2023-11-04T08:32:03.687Z,6.23
2023-11-04T08:32:37.679Z,6.32
2023-11-04T08:33:11.717Z,6.39
2023-11-04T08:33:46.189Z,6.55
2023-11-04T08:34:22.417Z,6.68
2023-11-04T08:35:06.812Z,6.76
2023-11-04T08:35:40.753Z,6.77
2023-11-04T08:36:14.678Z,6.93
2023-11-04T08:36:49.390Z,7.01
2023-11-04T08:37:25.551Z,6.97
2023-11-04T08:38:00.443Z,6.96
2023-11-04T08:38:46.427Z,7.12
2023-11-04T08:39:22.109Z,6.93
2023-11-04T08:39:56.889Z,6.89
2023-11-04T08:40:31.805Z,6.92
2023-11-04T08:41:05.771Z,7.02
2023-11-04T08:41:39.350Z,7.21
2023-11-04T08:42:28.738Z,7.35
2023-11-04T08:43:02.541Z,7.20
2023-11-04T08:43:36.712Z,7.28
2023-11-04T08:44:10.472Z,7.29